Time;durP1;ratioP1;P1;durP2;ratioP2;P2;SDS_P1;SDS_P2;PMS_P1;PMS_P2;Temp;Humidity;BMP_temperature;BMP_pressure;BME280_temperature;BME280_humidity;BME280_pressure;Samples;Min_cycle;Max_cycle;Signal;HPM_P1;HPM_P2
2021/12/09 00:02:20;;;;;;;4.40;3.00;;;5.70;99.90;;;;;;4977008;28;20780;-52
2021/12/09 00:04:47;;;;;;;5.20;3.00;;;5.80;99.90;;;;;;4977445;28;20453;-53
2021/12/09 00:07:13;;;;;;;3.40;2.80;;;5.70;99.90;;;;;;4960655;28;20456;-53
2021/12/09 00:09:39;;;;;;;5.00;3.00;;;5.70;99.90;;;;;;4976479;28;20411;-53
2021/12/09 00:12:06;;;;;;;3.00;2.60;;;5.90;99.90;;;;;;4960372;28;20459;-55
2021/12/09 00:14:34;;;;;;;6.03;2.43;;;5.80;99.90;;;;;;4976627;28;20658;-52
2021/12/09 00:17:08;;;;;;;4.73;3.30;;;5.90;99.90;;;;;;4976835;28;20921;-56
2021/12/09 00:19:35;;;;;;;6.40;3.13;;;5.90;99.90;;;;;;4976748;28;20407;-52
2021/12/09 00:22:04;;;;;;;4.13;2.73;;;5.90;99.90;;;;;;4977069;28;20876;-57
2021/12/09 00:24:30;;;;;;;4.60;2.63;;;5.90;99.90;;;;;;4994248;28;20782;-53
2021/12/09 00:26:56;;;;;;;4.67;2.37;;;6.10;99.90;;;;;;4976087;28;20444;-56
2021/12/09 00:29:23;;;;;;;5.17;2.20;;;6.10;99.90;;;;;;4960432;28;20431;-55
2021/12/09 00:31:49;;;;;;;2.27;1.90;;;6.00;99.90;;;;;;4979667;28;20454;-57
2021/12/09 00:34:16;;;;;;;4.13;2.60;;;5.90;99.90;;;;;;4997277;28;20412;-55
2021/12/09 00:36:55;;;;;;;8.67;3.00;;;6.00;99.90;;;;;;4980399;28;20191;-57
2021/12/09 00:39:22;;;;;;;4.80;3.20;;;6.10;99.90;;;;;;4997571;28;20416;-57
2021/12/09 00:41:48;;;;;;;3.10;2.60;;;6.10;99.90;;;;;;4997142;28;20916;-54
2021/12/09 00:44:14;;;;;;;6.97;3.90;;;5.90;99.90;;;;;;4963736;28;20940;-52
2021/12/09 00:46:40;;;;;;;10.93;3.80;;;5.90;99.90;;;;;;4979886;28;20447;-53
2021/12/09 00:49:06;;;;;;;6.77;4.30;;;5.80;99.90;;;;;;4963387;28;20430;-53
2021/12/09 00:51:32;;;;;;;6.13;3.60;;;5.80;99.90;;;;;;4997310;28;20271;-52
2021/12/09 00:53:58;;;;;;;4.23;2.90;;;5.90;99.90;;;;;;4979869;28;20455;-53
2021/12/09 00:56:24;;;;;;;4.60;3.40;;;6.20;99.90;;;;;;4947350;28;20205;-54
2021/12/09 00:58:50;;;;;;;6.40;3.07;;;6.20;99.90;;;;;;4963596;28;20420;-54
2021/12/09 01:01:17;;;;;;;5.77;3.50;;;6.30;99.90;;;;;;4996926;28;20416;-54
2021/12/09 01:03:43;;;;;;;9.03;3.83;;;6.20;99.90;;;;;;4996655;28;20424;-53
2021/12/09 01:06:11;;;;;;;6.80;3.13;;;6.30;99.90;;;;;;4979742;28;20440;-54
2021/12/09 01:08:38;;;;;;;3.47;3.10;;;6.20;99.90;;;;;;4979237;28;20453;-54
2021/12/09 01:11:04;;;;;;;5.10;2.90;;;6.20;99.90;;;;;;4979486;28;20823;-53
2021/12/09 01:13:31;;;;;;;8.23;4.80;;;6.20;99.90;;;;;;4978993;28;20925;-54
2021/12/09 01:15:57;;;;;;;8.30;5.47;;;6.10;99.90;;;;;;4979613;28;20473;-54
2021/12/09 01:18:23;;;;;;;8.63;4.37;;;6.00;99.90;;;;;;4979254;28;20419;-51
2021/12/09 01:20:50;;;;;;;6.23;3.30;;;6.00;99.90;;;;;;4979458;28;20867;-53
2021/12/09 01:23:16;;;;;;;2.50;2.30;;;6.00;99.90;;;;;;4979702;28;20410;-55
2021/12/09 01:25:43;;;;;;;4.20;2.63;;;6.00;99.90;;;;;;4979021;28;20872;-51
2021/12/09 01:28:19;;;;;;;2.73;2.00;;;5.90;99.90;;;;;;4996663;28;20451;-55
2021/12/09 01:30:47;;;;;;;2.83;1.70;;;6.00;99.90;;;;;;4997328;28;20446;-55
2021/12/09 01:33:13;;;;;;;2.93;2.00;;;5.90;99.90;;;;;;4996505;28;20416;-55
2021/12/09 01:35:40;;;;;;;2.80;2.20;;;6.00;99.90;;;;;;4996609;28;20434;-54
2021/12/09 01:38:12;;;;;;;6.17;2.80;;;6.00;99.90;;;;;;4997534;28;20237;-56
2021/12/09 01:40:38;;;;;;;2.77;2.50;;;6.10;99.90;;;;;;4996571;28;20426;-56
2021/12/09 01:43:05;;;;;;;5.33;2.50;;;6.20;99.90;;;;;;4994735;28;20412;-57
2021/12/09 01:45:30;;;;;;;3.33;2.60;;;6.20;99.90;;;;;;4962742;28;20439;-54
2021/12/09 01:47:56;;;;;;;4.50;2.40;;;6.30;99.90;;;;;;4975500;28;20431;-56
2021/12/09 01:50:23;;;;;;;2.93;2.43;;;6.30;99.90;;;;;;4979061;28;20279;-56
2021/12/09 01:52:50;;;;;;;3.97;2.57;;;6.20;99.90;;;;;;4996157;28;20889;-57
2021/12/09 01:55:18;;;;;;;5.00;2.90;;;6.20;99.90;;;;;;4995895;28;20483;-55
2021/12/09 01:57:47;;;;;;;5.23;3.43;;;6.30;99.90;;;;;;4995633;28;20412;-56
2021/12/09 02:00:17;;;;;;;7.93;3.13;;;6.40;99.90;;;;;;4963034;28;20408;-54
2021/12/09 02:02:44;;;;;;;5.07;2.67;;;6.40;99.90;;;;;;4963032;28;20410;-56
2021/12/09 02:05:12;;;;;;;6.50;3.93;;;6.40;99.90;;;;;;4995755;28;20930;-55
2021/12/09 02:07:39;;;;;;;5.40;3.77;;;6.30;99.90;;;;;;4984324;28;20426;-55
2021/12/09 02:10:08;;;;;;;6.00;4.67;;;6.40;99.90;;;;;;4978253;28;20508;-55
2021/12/09 02:12:34;;;;;;;5.07;4.50;;;6.50;99.90;;;;;;4962363;28;20423;-55
2021/12/09 02:15:01;;;;;;;3.90;3.47;;;6.50;99.90;;;;;;4978596;28;20412;-56
2021/12/09 02:17:27;;;;;;;5.77;4.37;;;6.40;99.90;;;;;;4978400;28;20412;-56
2021/12/09 02:19:56;;;;;;;10.60;3.83;;;6.50;99.90;;;;;;4979010;28;20412;-55
2021/12/09 02:22:22;;;;;;;5.20;4.33;;;6.50;99.90;;;;;;4962015;28;20851;-54
2021/12/09 02:24:48;;;;;;;7.83;5.23;;;6.50;99.90;;;;;;4978605;28;20447;-54
2021/12/09 02:27:14;;;;;;;5.47;4.90;;;6.50;99.90;;;;;;4977690;28;20806;-53
2021/12/09 02:29:41;;;;;;;9.50;6.57;;;6.30;99.90;;;;;;4995844;28;20627;-52
2021/12/09 02:32:07;;;;;;;5.63;4.63;;;6.30;99.90;;;;;;4995451;28;20565;-53
2021/12/09 02:34:34;;;;;;;7.10;4.67;;;6.30;99.90;;;;;;4977896;28;20499;-55
2021/12/09 02:37:00;;;;;;;7.80;5.50;;;6.30;99.90;;;;;;4962618;28;20448;-56
2021/12/09 02:39:26;;;;;;;7.50;5.70;;;6.20;99.90;;;;;;4977883;28;20408;-53
2021/12/09 02:41:52;;;;;;;8.17;6.27;;;6.30;99.90;;;;;;4977324;28;20769;-52
2021/12/09 02:44:20;;;;;;;6.37;5.77;;;6.20;99.90;;;;;;4961868;28;20439;-54
2021/12/09 02:46:49;;;;;;;14.17;6.87;;;6.30;99.90;;;;;;4988386;22;20226;-60
2021/12/09 02:49:18;;;;;;;6.70;5.47;;;6.20;99.90;;;;;;4966142;28;20416;-60
2021/12/09 02:51:46;;;;;;;5.73;5.10;;;6.10;99.90;;;;;;4957830;28;20451;-59
2021/12/09 02:54:15;;;;;;;7.90;5.57;;;6.20;99.90;;;;;;4957508;28;20500;-61
2021/12/09 02:56:43;;;;;;;5.50;4.70;;;5.90;99.90;;;;;;4983802;28;20437;-60
2021/12/09 02:59:09;;;;;;;7.10;5.30;;;5.90;99.90;;;;;;4994347;28;20400;-61
2021/12/09 03:01:54;;;;;;;9.57;5.30;;;6.00;99.90;;;;;;4977055;28;20507;-60
2021/12/09 03:04:20;;;;;;;8.37;5.63;;;6.00;99.90;;;;;;4994261;28;20384;-59
2021/12/09 03:06:48;;;;;;;9.30;5.70;;;6.00;99.90;;;;;;4976864;28;20519;-60
2021/12/09 03:09:17;;;;;;;8.53;5.00;;;6.10;99.90;;;;;;4994350;28;20682;-61
2021/12/09 03:11:45;;;;;;;12.87;7.70;;;6.10;99.90;;;;;;4976958;28;20446;-61
2021/12/09 03:14:11;;;;;;;10.67;7.03;;;6.10;99.90;;;;;;4993921;28;20444;-60
2021/12/09 03:16:39;;;;;;;5.50;4.93;;;5.90;99.90;;;;;;4976844;28;20439;-60
2021/12/09 03:19:08;;;;;;;9.30;5.60;;;5.70;99.90;;;;;;4976619;28;20495;-61
2021/12/09 03:21:38;;;;;;;11.77;6.10;;;5.90;99.90;;;;;;4976799;28;20955;-61
2021/12/09 03:24:07;;;;;;;10.73;6.13;;;5.90;99.90;;;;;;4977066;28;20405;-60
2021/12/09 03:26:36;;;;;;;10.03;5.10;;;5.80;99.90;;;;;;4976630;28;20440;-58
2021/12/09 03:29:05;;;;;;;10.20;5.10;;;5.80;99.90;;;;;;4976503;28;20467;-61
2021/12/09 03:31:31;;;;;;;13.53;5.20;;;5.90;99.90;;;;;;4976812;28;20444;-61
2021/12/09 03:33:58;;;;;;;6.77;5.70;;;5.90;99.90;;;;;;4976482;28;20434;-60
2021/12/09 03:36:28;;;;;;;8.30;6.00;;;5.80;99.90;;;;;;4976778;28;20551;-61
2021/12/09 03:38:54;;;;;;;10.07;5.77;;;5.80;99.90;;;;;;4994535;28;20419;-58
2021/12/09 03:41:20;;;;;;;6.47;4.70;;;5.80;99.90;;;;;;4994233;28;20950;-59
2021/12/09 03:43:46;;;;;;;8.60;5.30;;;5.80;99.90;;;;;;4980488;28;20964;-61
2021/12/09 03:46:12;;;;;;;10.17;5.90;;;5.90;99.90;;;;;;4957561;28;20535;-61
2021/12/09 03:48:38;;;;;;;10.27;5.40;;;5.90;99.90;;;;;;4974727;28;20430;-61
2021/12/09 03:51:03;;;;;;;10.90;5.70;;;5.80;99.90;;;;;;4957825;28;20456;-59
2021/12/09 03:53:29;;;;;;;9.63;5.70;;;5.60;99.90;;;;;;4958902;28;20170;-61
2021/12/09 03:55:55;;;;;;;12.17;5.77;;;5.70;99.90;;;;;;4980484;28;20220;-59
2021/12/09 03:58:21;;;;;;;9.80;5.37;;;5.70;99.90;;;;;;4996403;28;20209;-60
2021/12/09 04:00:47;;;;;;;7.63;5.43;;;5.60;99.90;;;;;;5014120;28;20991;-59
2021/12/09 04:03:13;;;;;;;7.53;5.17;;;5.70;99.90;;;;;;4995751;28;20200;-61
2021/12/09 04:05:39;;;;;;;7.60;5.40;;;5.80;99.90;;;;;;5014267;28;20477;-60
2021/12/09 04:08:07;;;;;;;7.20;5.37;;;5.90;99.90;;;;;;4999827;28;20454;-58
2021/12/09 04:10:33;;;;;;;6.93;5.93;;;6.00;99.90;;;;;;5017628;28;20188;-60
2021/12/09 04:12:59;;;;;;;9.50;6.17;;;6.10;99.90;;;;;;4999411;28;20418;-60
2021/12/09 04:15:25;;;;;;;11.83;5.53;;;6.20;99.90;;;;;;4999712;28;20415;-59
2021/12/09 04:17:52;;;;;;;11.10;5.47;;;6.30;99.90;;;;;;4999543;28;20434;-61
2021/12/09 04:20:18;;;;;;;9.00;5.53;;;6.30;99.90;;;;;;4999549;28;20827;-57
2021/12/09 04:22:48;;;;;;;11.07;5.43;;;6.10;99.90;;;;;;4999261;28;20411;-57
2021/12/09 04:25:16;;;;;;;6.30;5.03;;;5.90;99.90;;;;;;5017052;28;20393;-57
2021/12/09 04:27:42;;;;;;;8.50;5.87;;;5.90;99.90;;;;;;5016460;28;20434;-60
2021/12/09 04:30:08;;;;;;;7.07;5.43;;;6.00;99.90;;;;;;4999329;28;20415;-61
2021/12/09 04:32:33;;;;;;;8.63;6.13;;;6.00;99.90;;;;;;4999377;28;20494;-61
2021/12/09 04:34:59;;;;;;;6.80;5.27;;;5.90;99.90;;;;;;4999092;28;20411;-61
2021/12/09 04:37:25;;;;;;;8.53;5.20;;;5.90;99.90;;;;;;4998989;28;20736;-61
2021/12/09 04:39:51;;;;;;;8.70;5.90;;;5.80;99.90;;;;;;4999577;28;20251;-61
2021/12/09 04:42:17;;;;;;;9.20;7.50;;;5.90;99.90;;;;;;4998918;28;20172;-61
2021/12/09 04:44:42;;;;;;;19.60;10.80;;;6.00;99.90;;;;;;4999424;28;20411;-61
2021/12/09 04:47:08;;;;;;;11.47;7.70;;;5.70;99.90;;;;;;4998796;28;20213;-61
2021/12/09 04:49:34;;;;;;;13.73;6.90;;;5.90;99.90;;;;;;4998833;28;20590;-61
2021/12/09 04:52:01;;;;;;;10.47;5.83;;;6.00;99.90;;;;;;4998829;28;20444;-61
2021/12/09 04:54:26;;;;;;;8.00;6.33;;;5.90;99.90;;;;;;5016682;28;20170;-61
2021/12/09 04:56:52;;;;;;;10.53;7.07;;;5.90;99.90;;;;;;4998654;28;20437;-61
2021/12/09 04:59:18;;;;;;;12.07;5.10;;;5.90;99.90;;;;;;5015986;28;20192;-61
2021/12/09 05:01:48;;;;;;;7.30;4.27;;;6.00;99.90;;;;;;4998543;28;20416;-61
2021/12/09 05:04:14;;;;;;;7.83;4.43;;;5.90;99.90;;;;;;5016098;28;20437;-61
2021/12/09 05:06:40;;;;;;;6.93;4.13;;;6.10;99.90;;;;;;4998445;28;20439;-59
2021/12/09 05:09:10;;;;;;;6.40;4.50;;;6.10;99.90;;;;;;4998659;28;20500;-61
2021/12/09 05:14:06;;;;;;;11.10;4.83;;;5.80;99.90;;;;;;5016135;28;20409;-61
2021/12/09 05:16:32;;;;;;;7.10;4.03;;;5.80;99.90;;;;;;4998122;28;20862;-60
2021/12/09 05:18:59;;;;;;;10.43;4.80;;;5.90;99.90;;;;;;4982053;28;20414;-60
2021/12/09 05:21:39;;;;;;;9.80;4.00;;;6.10;99.90;;;;;;4998516;28;20902;-60
2021/12/09 05:24:10;;;;;;;7.23;4.70;;;6.20;99.90;;;;;;4998449;28;20411;-60
2021/12/09 05:26:47;;;;;;;10.50;5.10;;;6.20;99.90;;;;;;4998027;28;20581;-60
2021/12/09 05:29:14;;;;;;;5.70;4.00;;;6.20;99.90;;;;;;4999175;28;20395;-60
2021/12/09 05:34:25;;;;;;;5.70;3.70;;;6.20;99.90;;;;;;5015842;28;20398;-61
2021/12/09 05:36:50;;;;;;;5.50;4.40;;;6.20;99.90;;;;;;4997993;28;20438;-60
2021/12/09 05:39:16;;;;;;;10.07;4.50;;;6.20;99.90;;;;;;5004307;28;20414;-60
2021/12/09 05:41:43;;;;;;;11.60;4.47;;;6.10;99.90;;;;;;4985002;28;20188;-60
2021/12/09 05:44:09;;;;;;;7.73;4.67;;;6.20;99.90;;;;;;4976507;28;20499;-61
2021/12/09 05:46:38;;;;;;;10.90;5.17;;;6.30;99.90;;;;;;4976249;28;20457;-61
2021/12/09 05:49:06;;;;;;;9.43;5.03;;;6.30;99.90;;;;;;4976173;28;20424;-62
2021/12/09 05:51:31;;;;;;;6.73;3.90;;;6.20;99.90;;;;;;4976665;28;20805;-61
2021/12/09 05:53:57;;;;;;;8.60;4.70;;;6.00;99.90;;;;;;4976913;28;20405;-60
2021/12/09 05:56:23;;;;;;;6.80;4.67;;;6.20;99.90;;;;;;4965233;28;20201;-61
2021/12/09 05:58:49;;;;;;;6.50;4.27;;;6.20;99.90;;;;;;4995292;28;20403;-61
2021/12/09 06:01:15;;;;;;;5.43;4.60;;;6.10;99.90;;;;;;4978101;28;20515;-61
2021/12/09 06:03:41;;;;;;;10.30;3.83;;;6.20;99.90;;;;;;4995198;28;20173;-61
2021/12/09 06:06:16;;;;;;;8.20;4.20;;;6.20;99.90;;;;;;4978146;28;20184;-61
2021/12/09 06:08:41;;;;;;;6.70;3.53;;;6.10;99.90;;;;;;4995809;28;20419;-62
2021/12/09 06:11:09;;;;;;;6.80;3.27;;;6.10;99.90;;;;;;4977802;28;20995;-62
2021/12/09 06:13:37;;;;;;;5.90;2.87;;;6.10;99.90;;;;;;4995147;28;20558;-60
2021/12/09 06:16:05;;;;;;;4.67;3.33;;;6.10;99.90;;;;;;4995522;28;20423;-60
2021/12/09 06:18:31;;;;;;;6.90;3.83;;;6.00;99.90;;;;;;4994979;28;20400;-60
2021/12/09 06:20:57;;;;;;;9.80;4.00;;;6.00;99.90;;;;;;4978467;28;20500;-60
2021/12/09 06:23:23;;;;;;;10.00;4.07;;;6.10;99.90;;;;;;4977386;28;20412;-58
2021/12/09 06:25:50;;;;;;;6.07;4.77;;;6.10;99.90;;;;;;4996841;28;20226;-60
2021/12/09 06:28:16;;;;;;;7.07;4.33;;;6.10;99.90;;;;;;5013887;28;20407;-60
2021/12/09 06:30:43;;;;;;;8.50;4.10;;;6.10;99.90;;;;;;4996794;28;20473;-61
2021/12/09 06:33:09;;;;;;;4.80;3.27;;;6.10;99.90;;;;;;4996709;28;20408;-60
2021/12/09 06:35:35;;;;;;;5.50;3.43;;;6.10;99.90;;;;;;5014891;28;20416;-61
2021/12/09 06:38:01;;;;;;;9.73;4.00;;;6.10;99.90;;;;;;4996863;28;20422;-59
2021/12/09 06:40:27;;;;;;;7.10;4.00;;;6.10;99.90;;;;;;4996840;28;20408;-60
2021/12/09 06:42:53;;;;;;;7.33;3.87;;;5.90;99.90;;;;;;4996476;28;20174;-61
2021/12/09 06:45:21;;;;;;;7.30;4.20;;;5.90;99.90;;;;;;4996763;28;20415;-61
2021/12/09 06:47:47;;;;;;;4.27;3.80;;;5.80;99.90;;;;;;4996366;28;20439;-60
2021/12/09 06:50:17;;;;;;;5.27;3.70;;;5.90;99.90;;;;;;4996258;28;20451;-61
2021/12/09 06:52:43;;;;;;;7.03;3.60;;;6.00;99.90;;;;;;4996690;28;20451;-59
2021/12/09 06:55:12;;;;;;;9.20;4.80;;;6.00;99.90;;;;;;4996558;28;20406;-62
2021/12/09 06:57:38;;;;;;;19.87;13.13;;;6.00;99.90;;;;;;4996133;28;20207;-60
2021/12/09 07:00:14;;;;;;;8.30;4.50;;;6.00;99.90;;;;;;4996469;28;20493;-62
2021/12/09 07:02:39;;;;;;;8.90;4.20;;;6.00;99.90;;;;;;4996451;28;20485;-61
2021/12/09 07:05:07;;;;;;;5.87;3.70;;;5.50;99.90;;;;;;4996481;28;20903;-61
2021/12/09 07:07:33;;;;;;;6.87;3.97;;;5.50;99.90;;;;;;4996109;28;20560;-61
2021/12/09 07:09:59;;;;;;;6.97;4.90;;;5.70;99.90;;;;;;4996320;28;20407;-61
2021/12/09 07:12:25;;;;;;;6.00;2.90;;;5.70;99.90;;;;;;5014092;28;20533;-61
2021/12/09 07:14:51;;;;;;;8.43;4.90;;;5.90;99.90;;;;;;4995735;28;20435;-60
2021/12/09 07:17:17;;;;;;;8.47;4.77;;;6.00;99.90;;;;;;4996111;28;20188;-61
2021/12/09 07:19:43;;;;;;;5.43;4.40;;;5.90;99.90;;;;;;5013690;28;20251;-57
2021/12/09 07:22:09;;;;;;;6.37;3.90;;;5.90;99.90;;;;;;4996125;28;20477;-61
2021/12/09 07:24:35;;;;;;;8.43;4.73;;;5.90;99.90;;;;;;4996010;28;20176;-59
2021/12/09 07:27:01;;;;;;;10.13;5.00;;;6.00;99.90;;;;;;4995810;28;20445;-61
2021/12/09 07:29:28;;;;;;;6.70;4.50;;;6.10;99.90;;;;;;5013354;28;20525;-61
2021/12/09 07:31:54;;;;;;;9.63;4.10;;;6.00;99.90;;;;;;5013501;28;20493;-61
2021/12/09 07:34:21;;;;;;;9.10;4.27;;;6.10;99.90;;;;;;4996255;28;20399;-61
2021/12/09 07:36:47;;;;;;;5.60;3.90;;;6.20;99.90;;;;;;4983300;28;20796;-61
2021/12/09 07:39:13;;;;;;;6.93;4.03;;;6.30;99.90;;;;;;4974476;28;20404;-60
2021/12/09 07:41:39;;;;;;;5.27;4.77;;;6.20;99.90;;;;;;4973595;28;20412;-60
2021/12/09 07:44:05;;;;;;;5.70;4.67;;;6.00;99.90;;;;;;4974087;28;20417;-62
2021/12/09 07:46:32;;;;;;;8.73;5.50;;;6.10;99.90;;;;;;4974323;28;20212;-61
2021/12/09 07:48:59;;;;;;;5.90;3.93;;;6.10;99.90;;;;;;4974079;28;20408;-62
2021/12/09 07:51:27;;;;;;;5.30;3.40;;;6.20;99.90;;;;;;4974507;28;20444;-61
2021/12/09 07:53:53;;;;;;;6.40;4.40;;;6.10;99.90;;;;;;4974680;28;20453;-60
2021/12/09 07:56:19;;;;;;;5.87;4.50;;;6.30;99.90;;;;;;4985627;28;20462;-61
2021/12/09 07:58:45;;;;;;;10.50;6.47;;;6.30;99.90;;;;;;5013130;28;20164;-59
2021/12/09 08:01:11;;;;;;;7.20;5.40;;;6.30;99.90;;;;;;5013691;28;20888;-61
2021/12/09 08:03:37;;;;;;;8.23;5.20;;;6.40;99.90;;;;;;5013156;28;20412;-61
2021/12/09 08:06:03;;;;;;;5.40;4.83;;;6.30;99.90;;;;;;5013792;28;20674;-61
2021/12/09 08:08:29;;;;;;;9.23;4.43;;;6.20;99.90;;;;;;5013738;28;20469;-60
2021/12/09 08:10:55;;;;;;;6.10;4.53;;;6.10;99.90;;;;;;5013149;28;20438;-59
2021/12/09 08:13:22;;;;;;;5.13;4.60;;;6.20;99.90;;;;;;5013262;28;20247;-58
2021/12/09 08:15:50;;;;;;;5.90;4.23;;;6.20;99.90;;;;;;5013448;28;20169;-61
2021/12/09 08:20:47;;;;;;;6.90;5.00;;;6.40;99.90;;;;;;5013320;28;20408;-59
2021/12/09 08:23:13;;;;;;;6.40;4.03;;;6.30;99.90;;;;;;5013707;28;20514;-56
2021/12/09 08:25:40;;;;;;;6.70;4.30;;;6.20;99.90;;;;;;5012863;28;20407;-59
2021/12/09 08:28:06;;;;;;;5.43;4.60;;;6.30;99.90;;;;;;4979850;28;20419;-60
2021/12/09 08:30:33;;;;;;;7.70;5.40;;;6.50;99.90;;;;;;4974395;28;20442;-61
2021/12/09 08:32:59;;;;;;;10.77;7.80;;;6.60;99.90;;;;;;4981142;28;20515;-61
2021/12/09 08:35:25;;;;;;;9.80;6.70;;;6.60;99.90;;;;;;4978741;28;20544;-59
2021/12/09 08:37:54;;;;;;;8.60;5.90;;;6.70;99.90;;;;;;4984046;28;20571;-61
2021/12/09 08:40:21;;;;;;;9.93;5.73;;;6.70;99.90;;;;;;4993206;28;20407;-60
2021/12/09 08:42:49;;;;;;;9.10;6.20;;;6.60;99.90;;;;;;4993280;28;20427;-58
2021/12/09 08:45:16;;;;;;;10.73;5.03;;;6.60;99.90;;;;;;4993231;28;20909;-62
2021/12/09 08:47:42;;;;;;;6.53;4.90;;;6.60;99.90;;;;;;5011405;23;20482;-55
2021/12/09 08:50:12;;;;;;;8.53;5.13;;;6.40;99.90;;;;;;4999879;28;20407;-52
2021/12/09 08:52:37;;;;;;;7.43;4.37;;;6.30;99.90;;;;;;4997749;28;20431;-53
2021/12/09 08:55:04;;;;;;;8.80;4.30;;;6.50;99.90;;;;;;5016234;28;20408;-55
2021/12/09 08:57:32;;;;;;;4.73;4.33;;;6.60;99.90;;;;;;5015665;28;20279;-54
2021/12/09 08:59:58;;;;;;;6.27;5.23;;;6.60;99.90;;;;;;4982933;28;20409;-54
2021/12/09 09:02:24;;;;;;;6.53;5.13;;;6.60;99.90;;;;;;4999611;28;20441;-54
2021/12/09 09:04:50;;;;;;;6.30;4.60;;;6.80;99.90;;;;;;4999529;28;20416;-54
2021/12/09 09:07:17;;;;;;;6.37;4.80;;;6.70;99.90;;;;;;4998979;28;20200;-53
2021/12/09 09:09:43;;;;;;;5.70;4.20;;;6.60;99.90;;;;;;4999346;28;20604;-58
2021/12/09 09:12:13;;;;;;;6.10;5.23;;;6.70;99.90;;;;;;4999433;28;20440;-53
2021/12/09 09:14:40;;;;;;;5.30;4.40;;;6.80;99.90;;;;;;5015995;28;20424;-50
2021/12/09 09:17:07;;;;;;;6.87;4.30;;;6.90;99.90;;;;;;5015342;28;20572;-53
2021/12/09 09:19:33;;;;;;;7.50;5.70;;;6.80;99.90;;;;;;5015738;28;20443;-53
2021/12/09 09:21:59;;;;;;;8.23;4.80;;;6.70;99.90;;;;;;4998968;28;20420;-55
2021/12/09 09:24:25;;;;;;;7.00;4.57;;;6.90;99.90;;;;;;5016358;28;20413;-54
2021/12/09 09:26:51;;;;;;;6.40;4.40;;;6.90;99.90;;;;;;4982674;28;20455;-51
2021/12/09 09:29:17;;;;;;;7.63;4.70;;;7.20;99.90;;;;;;4982290;28;20496;-55
2021/12/09 09:31:43;;;;;;;5.33;4.83;;;6.80;99.90;;;;;;5015435;28;20501;-54
2021/12/09 09:34:11;;;;;;;8.57;4.23;;;6.80;99.90;;;;;;5014212;28;20251;-54
2021/12/09 09:36:43;;;;;;;7.20;4.83;;;6.90;99.90;;;;;;4999179;28;20469;-52
2021/12/09 09:39:17;;;;;;;5.10;4.60;;;7.00;99.90;;;;;;4999567;28;20404;-55
2021/12/09 09:41:48;;;;;;;6.60;4.70;;;7.20;99.90;;;;;;4985012;28;20914;-53
2021/12/09 09:44:17;;;;;;;7.03;4.73;;;7.10;99.90;;;;;;5015982;28;20472;-52
2021/12/09 09:46:43;;;;;;;5.20;4.70;;;7.10;99.90;;;;;;4998705;28;20449;-54
2021/12/09 09:49:10;;;;;;;4.77;4.27;;;7.30;99.90;;;;;;4998380;28;20393;-56
2021/12/09 09:51:37;;;;;;;6.17;5.20;;;7.30;99.90;;;;;;4998189;28;20862;-55
2021/12/09 09:54:05;;;;;;;6.27;5.60;;;7.30;99.90;;;;;;4998323;28;20445;-53
2021/12/09 09:56:34;;;;;;;7.23;4.40;;;7.40;99.90;;;;;;4998495;28;20797;-54
2021/12/09 09:59:10;;;;;;;5.73;4.63;;;7.00;99.90;;;;;;4981807;28;20916;-56
2021/12/09 10:01:38;;;;;;;5.90;5.00;;;7.00;99.90;;;;;;4998076;28;20393;-54
2021/12/09 10:04:11;;;;;;;8.40;4.87;;;7.00;99.90;;;;;;4996795;28;20520;-54
2021/12/09 10:06:38;;;;;;;9.00;5.43;;;7.10;99.90;;;;;;5015256;28;20478;-57
2021/12/09 10:09:07;;;;;;;4.50;4.10;;;7.00;99.90;;;;;;4981622;28;20518;-54
2021/12/09 10:11:34;;;;;;;6.77;4.10;;;6.90;99.90;;;;;;4997925;28;20447;-54
2021/12/09 10:14:20;;;;;;;5.97;4.70;;;7.10;99.90;;;;;;4997794;28;20418;-52
2021/12/09 10:17:00;;;;;;;5.70;4.67;;;7.10;99.90;;;;;;4998118;28;20422;-56
2021/12/09 10:19:27;;;;;;;6.17;4.63;;;6.80;99.90;;;;;;4999633;28;20385;-51
2021/12/09 10:22:06;;;;;;;4.93;4.23;;;6.80;99.90;;;;;;4997737;28;20418;-56
2021/12/09 10:24:33;;;;;;;4.90;4.43;;;6.80;99.90;;;;;;5016297;28;20881;-52
2021/12/09 10:26:59;;;;;;;5.77;5.20;;;7.20;99.90;;;;;;4997304;28;20439;-54
2021/12/09 10:29:34;;;;;;;6.60;4.40;;;7.40;99.90;;;;;;5014764;28;20940;-52
2021/12/09 10:32:04;;;;;;;5.40;4.83;;;7.60;99.90;;;;;;4999007;28;20437;-56
2021/12/09 10:34:41;;;;;;;6.47;4.27;;;7.70;99.90;;;;;;4997490;28;20899;-54
2021/12/09 10:37:14;;;;;;;4.17;3.30;;;7.50;99.90;;;;;;5014863;28;20423;-56
2021/12/09 10:40:09;;;;;;;4.70;4.03;;;7.10;99.90;;;;;;4998360;28;20456;-51
2021/12/09 10:42:36;;;;;;;4.30;3.90;;;7.30;99.90;;;;;;5001497;28;20476;-51
2021/12/09 10:45:20;;;;;;;12.93;5.30;;;7.30;99.90;;;;;;5014804;28;20417;-51
2021/12/09 10:47:52;;;;;;;5.90;4.27;;;7.30;99.90;;;;;;5014357;28;20524;-55
2021/12/09 10:50:33;;;;;;;4.47;3.87;;;7.20;99.90;;;;;;5014544;28;20439;-57
2021/12/09 10:53:30;;;;;;;4.23;3.83;;;7.20;99.90;;;;;;5014684;28;20451;-57
2021/12/09 10:55:59;;;;;;;4.33;3.93;;;7.50;99.90;;;;;;5014341;28;20413;-55
2021/12/09 10:58:28;;;;;;;7.23;4.10;;;7.40;99.90;;;;;;5014070;28;20428;-57
2021/12/09 11:00:58;;;;;;;8.53;4.50;;;7.50;99.90;;;;;;4996826;28;20442;-55
2021/12/09 11:03:23;;;;;;;5.13;3.73;;;7.40;99.90;;;;;;4996600;28;20500;-53
2021/12/09 11:05:52;;;;;;;4.67;3.50;;;7.40;99.90;;;;;;5014067;28;20439;-53
2021/12/09 11:08:21;;;;;;;5.17;3.50;;;7.10;99.90;;;;;;5013681;28;20217;-57
2021/12/09 11:10:49;;;;;;;4.13;3.00;;;7.10;99.90;;;;;;4980567;28;20816;-54
2021/12/09 11:13:21;;;;;;;7.23;3.63;;;7.10;99.90;;;;;;4997011;28;20893;-56
2021/12/09 11:15:49;;;;;;;3.97;3.40;;;7.10;99.90;;;;;;4996216;28;20848;-57
2021/12/09 11:18:35;;;;;;;5.10;3.70;;;7.30;99.90;;;;;;4996711;28;20884;-55
2021/12/09 11:21:17;;;;;;;5.83;3.47;;;7.40;99.90;;;;;;5013772;28;20427;-56
2021/12/09 11:23:49;;;;;;;3.33;3.03;;;7.50;99.90;;;;;;4996634;28;20523;-54
2021/12/09 11:26:31;;;;;;;10.50;3.00;;;7.80;99.90;;;;;;4993474;28;20755;-56
2021/12/09 11:29:08;;;;;;;5.90;2.93;;;8.10;99.90;;;;;;4993940;28;20493;-56
2021/12/09 11:32:12;;;;;;;4.00;3.20;;;8.30;99.90;;;;;;4961330;28;20454;-53
2021/12/09 11:34:55;;;;;;;4.23;2.67;;;8.30;99.90;;;;;;4978625;28;20923;-54
2021/12/09 11:40:00;;;;;;;2.87;2.30;;;8.00;99.90;;;;;;4996741;28;20424;-53
2021/12/09 11:42:33;;;;;;;2.90;2.67;;;8.20;99.90;;;;;;4985661;28;20505;-54
2021/12/09 11:44:59;;;;;;;3.63;3.00;;;8.30;99.90;;;;;;4961101;28;20788;-51
2021/12/09 11:47:25;;;;;;;5.17;2.77;;;8.30;99.90;;;;;;4976323;28;20776;-56
2021/12/09 11:49:51;;;;;;;5.50;3.40;;;8.50;99.90;;;;;;4993689;28;20421;-56
2021/12/09 11:52:19;;;;;;;4.17;3.27;;;8.30;99.90;;;;;;4993608;28;20665;-55
2021/12/09 11:54:54;;;;;;;6.83;3.07;;;8.20;99.90;;;;;;4976688;28;20416;-54
2021/12/09 12:12:00;;;;;;;7.03;3.97;;;8.90;99.90;;;;;;4998758;28;20477;-56
2021/12/09 12:14:39;;;;;;;5.07;3.20;;;9.40;99.90;;;;;;4995831;28;20430;-54
2021/12/09 12:17:23;;;;;;;3.80;2.80;;;9.10;99.90;;;;;;5013675;28;20415;-50
2021/12/09 12:20:20;;;;;;;3.03;2.63;;;8.90;99.90;;;;;;4982257;28;20410;-52
2021/12/09 12:23:16;;;;;;;5.93;3.60;;;8.80;99.90;;;;;;4984575;28;20880;-52
2021/12/09 12:38:19;;;;;;;8.07;4.40;;;8.40;99.90;;;;;;4957022;29;20527;-53
2021/12/09 12:41:06;;;;;;;5.97;3.43;;;8.40;99.90;;;;;;4940721;29;20413;-54
2021/12/09 12:43:40;;;;;;;6.13;2.90;;;8.40;99.90;;;;;;4999037;28;20483;-52
2021/12/09 12:51:11;;;;;;;7.30;3.07;;;8.20;99.90;;;;;;5017003;28;20426;-55
2021/12/09 12:53:43;;;;;;;4.33;2.60;;;8.40;99.90;;;;;;5017096;28;20927;-57
2021/12/09 12:56:17;;;;;;;8.30;3.23;;;8.00;99.90;;;;;;4999363;28;20405;-52
2021/12/09 12:59:05;;;;;;;5.37;2.60;;;7.80;99.90;;;;;;5000289;28;20386;-53
2021/12/09 13:01:37;;;;;;;3.50;2.53;;;7.90;99.90;;;;;;5016563;28;20456;-53
2021/12/09 13:08:22;;;;;;;5.70;2.83;;;7.80;99.90;;;;;;5000835;28;20517;-56
2021/12/09 13:13:39;;;;;;;5.60;3.07;;;8.00;99.90;;;;;;5016395;28;20387;-55
2021/12/09 13:16:43;;;;;;;10.07;2.47;;;8.10;99.90;;;;;;5016645;28;20402;-54
2021/12/09 13:19:14;;;;;;;8.97;3.43;;;7.90;99.90;;;;;;5015447;28;20417;-52
2021/12/09 13:21:55;;;;;;;9.90;3.40;;;8.10;99.90;;;;;;5015672;28;20406;-55
2021/12/09 13:24:27;;;;;;;5.63;2.53;;;7.90;99.90;;;;;;4999970;28;20508;-55
2021/12/09 13:33:05;;;;;;;8.53;2.53;;;8.10;99.90;;;;;;5015973;28;20440;-51
2021/12/09 13:46:20;;;;;;;7.83;3.43;;;7.80;99.90;;;;;;4981061;28;20900;-56
2021/12/09 13:49:04;;;;;;;9.23;3.73;;;7.90;99.90;;;;;;4980453;28;20905;-58
2021/12/09 13:54:26;;;;;;;7.33;3.77;;;8.00;99.90;;;;;;4981431;28;20418;-54
2021/12/09 13:56:59;;;;;;;4.80;3.57;;;8.10;99.90;;;;;;5005864;28;20443;-55
2021/12/09 13:59:27;;;;;;;8.37;3.33;;;8.10;99.90;;;;;;4997553;28;20784;-54
2021/12/09 14:01:55;;;;;;;6.17;2.80;;;8.10;99.90;;;;;;5015475;28;20424;-53
2021/12/09 14:04:23;;;;;;;7.17;3.20;;;8.10;99.90;;;;;;4997732;28;20420;-56
2021/12/09 14:07:09;;;;;;;5.70;3.07;;;8.00;99.90;;;;;;4997531;28;20529;-53
2021/12/09 14:09:37;;;;;;;3.50;2.80;;;8.10;99.90;;;;;;5015391;28;20410;-57
2021/12/09 14:12:04;;;;;;;11.47;2.70;;;8.10;99.90;;;;;;4981502;28;20488;-57
2021/12/09 14:17:18;;;;;;;7.00;2.30;;;8.10;99.90;;;;;;5000388;28;20436;-51